You are here

Stations

Station Name Date Time Temperature Relative Humidity Precipitation Wind Speed Wind Direction Create Custom Report Daily Report Hourly Report
A&O Farm 2026-02-05 8:45 59.1 63.92 0.00 6.50 NNE
Aberdeen VTcrn 2026-02-05 8:45 55.9 69.93 0.00 4.26 N
Beaumont Exp Stn 2026-02-05 8:45 56.5 93.00 0.22 5.70 NE
Bee Lake 2026-02-05 8:45 59.0 66.09 0.00 0.36 NNW
Belzoni 2026-02-05 8:45 60.0 60.35 0.00 5.72 NNE
Black Belt F24 VTcrn 2026-02-05 8:45 57.7 62.00 0.00 0.00 NW
Blk Belt F22-23 VTso 2026-02-05 8:45 57.1 63.43 0.00 8.97 NNE
Brooksville 2026-02-05 8:45 57.0 60.06 0.00 7.99 NNE
Brooksville2 VTso 2026-02-05 8:45 56.8 62.60 0.00
Brown Loam Exp. Stn. 2026-02-05 8:45 57.8 75.10 0.03 5.63 N
Brown Loam VT1crn/so 2026-02-05 8:45 -148.0 -100.00 0.04 1.73 N
Brown Loam VT2crn/so 2026-02-05 8:45 59.4 77.90 0.04 4.44 NNE
Canton 2026-02-05 8:45 57.5 76.81 0.03 5.45 NNE
Cary 2026-02-05 8:45 60.2 63.00 0.00 5.97 NNW
Clarksdale VTso 2026-02-05 8:45 58.4 62.04 0.00
Cleveland 2026-02-05 8:45 58.9 59.26 0.00 5.91 N
Coastal Res & Ext Cnt 2026-02-05 8:45 57.0 86.60 0.31 3.20 NNE
Como 2026-02-05 8:45 57.3 61.45 0.00 1.09 NNE
Cooper Farm 2026-02-05 8:45 59.3 66.46 0.00 6.29 N
Crystal Sprgs Exp Stn 2026-02-05 8:45 58.5 83.60 0.05 6.01 N
Delta City 2026-02-05 8:45 58.9 65.02 0.00 7.37 SW
Dundee 2026-02-05 8:45 60.8 51.95 0.00 1.46 SSE
Greenwood 2026-02-05 8:45 58.5 67.55 0.00 2.21 N
Holly Bluff 2026-02-05 8:45 60.0 65.17 0.00 4.99 N
Holly Ridge 2026-02-05 8:45 57.9 64.73 0.00 4.76 NNE
Home Cypress Farm 2026-02-05 8:45 57.9 63.21 0.00 0.00 NW
Houston 2026-02-05 8:45 56.3 60.84 0.00 5.25 NNE
Lamar 2026-02-05 8:45 58.6 60.27 0.00 0.31 ESE
Lancaster 2026-02-05 8:45 58.9 66.35 0.00 4.92 NNW
Longwood VTso 2026-02-05 8:45 59.1 68.06 0.00 5.37 WSW
Lyon 2026-02-05 8:45 59.2 54.67 0.00 2.39 NNE
Macon VTcrn 2026-02-05 8:45 57.9 66.08 0.00 6.90 NE
Mantee VT 2026-02-05 8:45 56.0 72.67 0.00 1.12 N
McNeill 2026-02-05 8:45 55.2 92.20 0.26 5.92 N
Minter City VTcn 2026-02-05 8:45 59.5 58.67 0.00 1.16 NNE
Money 2026-02-05 8:45 58.0 66.55 0.00 5.62 NNE
Mound Bayou 2026-02-05 8:45 57.8 60.85 0.00 3.74 NNE
MSU North Farm Starkv 2026-02-05 8:45 56.7 66.50 0.00 3.80 NNE
MSU South Farm Starkv 2026-02-05 8:45 56.6 63.44 0.00 7.10 N
Natchez 2026-02-05 8:45 58.5 86.90 0.01 2.47 NNE
Newton 2026-02-05 8:45 58.6 74.44 0.08 2.13 NE
Olive Branch VTcr 2026-02-05 8:45 58.6 60.00 0.00 0.00 NNE
Olive Branch2 VTso 2026-02-05 8:45 60.2 61.26 0.00
Onward VTcrn 2026-02-05 8:45 60.9 70.45 0.02
Oxberry 2026-02-05 8:45 59.3 51.62 0.00 2.78 N
Pontotoc AWS COOP 2026-02-05 8:44
Pontotoc Exp Stn 2026-02-05 8:45 57.1 59.54 0.00 4.05 NNE
Poplarville 2026-02-05 8:45 56.5 90.30 0.28 5.02 NW
Port Gibson 2026-02-05 8:45 60.3 86.00 0.02 2.92 N
Prairie 2026-02-05 8:45 55.6 64.45 0.00 3.17 NE
Senatobia 2026-02-05 8:45 57.5 71.08 0.00 0.81 SSW
Shurden Farm 2026-02-05 8:45 58.2 63.82 0.00 3.78 NNW
Sidon 2026-02-05 8:45 59.8 58.12 0.00 2.79 WSW
Sledge 2026-02-05 8:45 57.4 63.34 0.00 2.21 NNW
Stnville F7 VTcrn/so 2026-02-05 8:45 59.9 63.41 0.00
Stoneville AWS 2026-02-05 8:45 58.1 60.55 0.00 3.98 NNE
Stoneville F10 2026-02-05 8:45 58.4 67.00 0.00 4.11 ENE
Stoneville F17 VTso 2026-02-05 8:45 59.2 57.91 0.00
Stoneville W 2026-02-05 8:45 58.9 61.13 0.00 5.75 N
Stoneville_F8 2026-02-05 8:45 58.9 63.52 0.00 3.22 NNW
Stoneville_SW 2026-02-05 8:45 59.0 61.81 0.00 4.92 N
Thighman 2026-02-05 8:45 60.7 60.77 0.00 2.66 NNW
Tippo VTso 2026-02-05 8:45 59.6 64.31 0.00
Tribbett 2026-02-05 8:00 54.6 79.55 0.00 5.99 NNE
Tunica 2026-02-05 8:45 -148.0 -100.00 0.00 1.43 E
Vaiden 2026-02-05 8:45 57.4 63.98 0.00 2.99 NNE
Verona 2026-02-05 8:45 58.1 58.20 0.00 5.03 ENE
Verona VTcrn/so 2026-02-05 8:45 58.1 59.12 0.00
Vicksburg 2026-02-05 8:45 60.7 80.90 0.02 1.52 WNW
White Sand 2026-02-05 8:45 57.2 87.70 0.25 5.20 NW
Back to Top